Startpagina
METAR-TAF:

METAR-TAF

Vliegvelden :

Rodez, Frankrijk

breedte: 44-24N, lengte: 002-29E, hoogte: 581 m

Actueel weer

Dit bericht is 29 minuten geleden gemaakt, om 02:00 UTC
Wind 4 kt uit het zuidoosten
Temperatuur 17°C
Vochtigheid 77%
Druk 1019 hPa
Zicht 10 km of meer
geen wolken onder 1500 m en geen cumulonimbus

METAR: LFCR 260200Z AUTO 14004KT CAVOK 17/13 Q1019 NOSIG

Tijdstip: 04:29 (02:29 UTC)

Verwachting

Dit bericht is 3 uur en het 29 minuten geleden gemaakt, om 23:00 UTC
Verwachting geldig van 26 om 00 UTC tot 26 om 24 UTC
Wind 4 kt uit het oostzuidoosten
Zicht 10 km of meer
geen wolken onder 1500 m en geen cumulonimbus
Wijzigt naar
van 26 om 16 UTC tot 26 om 18 UTC
Wind 10 kt uit het zuidoosten

TAF: LFCR 252300Z 2600/2624 11004KT CAVOK BECMG 2616/2618 14010KT

Waarnemingen en weersverwachtingen van meer dan 4000 vliegvelden (METAR en TAF).

De beschikbare stations zijn de gele en rode punten op de kaart.

Ga met uw muis naar het station om de naam te zien.

Klik dan om waarnemingen en weersverwachtingen te zien.

kaart wijzigen: klik op de groene knoppen met een zwart kruis om in te zoomen, op de groene knop met een streepje om uit te zoomen of op de groene pijlen voor aangrenzende kaarten.


METAR-TAF: